Norwegian Jade — C6WK7 — position and weather

sailwx.info

Track history (hours):
 
Tides and Currents Weather Stations Pressure Air Temp Water Temp Dewpoint Dewpoint Depression Visibility Wind Speed Wind Dir Waves Ship Positions

Norwegian Jade

Last reported at 2019-Jun-14 18:28 UTC. Time now 2019-Jun-17 18:38 UTC.
Position N 37°06' E 024°57'.

Length 294 m; draft 8.5 m.

Type: Passenger vessel. MMSI: 308416000.

Date/timePositionNaut miles runAvg speedWind from/ knotsBaromVisibWave heightAir tempDewpointWater temp
2019-Jun-14 18:28N 37°06' E 024°57'4 9.3
2019-Jun-14 18:00N 37°10' E 024°59'5 9.1
2019-Jun-14 17:30N 37°14' E 025°01'4 8.9
2019-Jun-14 17:00N 37°18' E 025°04'4 8.9
2019-Jun-14 16:30N 37°22' E 025°06'4 7.8
2019-Jun-14 16:00N 37°25' E 025°09'4 7.8
2019-Jun-14 15:30N 37°28' E 025°13'4 8.7
2019-Jun-14 15:00N 37°28' E 025°18'1 1.9
2019-Jun-14 14:30N 37°28' E 025°19'0 0.0
2019-Jun-14 14:00N 37°28' E 025°19'0 0.0
2019-Jun-14 13:30N 37°28' E 025°19'0 0.0
2019-Jun-14 12:54N 37°28' E 025°19'0 0.0
2019-Jun-14 12:24N 37°28' E 025°19'0 0.0
2019-Jun-14 12:00N 37°28' E 025°19'0 0.0
2019-Jun-14 11:30N 37°28' E 025°19'0 0.0
2019-Jun-14 11:00N 37°28' E 025°19'0 0.0
2019-Jun-14 10:30N 37°28' E 025°19'0 0.0
2019-Jun-14 10:00N 37°28' E 025°19'0 0.0
2019-Jun-14 09:30N 37°28' E 025°19'0 0.0
2019-Jun-14 09:00N 37°28' E 025°19'0 0.0
2019-Jun-14 08:30N 37°28' E 025°19'0 0.0
2019-Jun-14 08:00N 37°28' E 025°19'0 0.0
2019-Jun-14 07:30N 37°28' E 025°19'0 0.0
2019-Jun-14 06:57N 37°28' E 025°19'0 0.0
2019-Jun-14 06:30N 37°28' E 025°19'0 0.0
2019-Jun-14 06:00N 37°28' E 025°19'0 0.0
2019-Jun-14 05:30N 37°28' E 025°19'0 0.0
2019-Jun-14 04:57N 37°28' E 025°19'0 0.0
2019-Jun-14 04:30N 37°28' E 025°19'1 2.3
2019-Jun-14 04:00N 37°27' E 025°18'5 9.7
2019-Jun-14 03:30N 37°27' E 025°12'510.3
2019-Jun-14 03:00N 37°24' E 025°08'510.7
2019-Jun-14 02:30N 37°19' E 025°04'611.1
2019-Jun-14 02:00N 37°14' E 025°01'611.2
2019-Jun-14 01:30N 37°09' E 024°58'87 3.5
2019-Jun-13 00:29N 36°23' E 023°27'14919.0
2019-Jun-12 16:40N 37°25' E 020°38'  
2019-Jun-10 03:00N 43°33' E 014°20'1221.8
2019-Jun-10 02:28N 43°41' E 014°08'1221.7
2019-Jun-10 01:54N 43°49' E 013°55'1021.3
2019-Jun-10 01:25N 43°56' E 013°44'921.2
2019-Jun-10 01:00N 44°01' E 013°35'1121.1
2019-Jun-10 00:30N 44°07' E 013°23'1020.3
2019-Jun-10 00:00N 44°14' E 013°12'1121.0
2019-Jun-09 23:30N 44°24' E 013°08'1020.9
2019-Jun-09 23:00N 44°34' E 013°03'1121.1
2019-Jun-09 22:30N 44°44' E 012°58'1021.0
2019-Jun-09 22:00N 44°53' E 012°52'1021.0
2019-Jun-09 21:30N 45°03' E 012°45'1020.1
2019-Jun-09 21:00N 45°10' E 012°35'918.7
2019-Jun-09 20:30N 45°19' E 012°30'714.2
2019-Jun-09 20:00N 45°25' E 012°26'3 5.8
2019-Jun-09 19:30N 45°25' E 012°22'2 4.3
2019-Jun-09 19:00N 45°26' E 012°19'1 1.1
2019-Jun-09 18:28N 45°26' E 012°19'0 0.0
2019-Jun-09 17:58N 45°26' E 012°19'0 0.0
2019-Jun-09 17:28N 45°26' E 012°19'0 0.0
2019-Jun-09 16:58N 45°26' E 012°19'0 0.0
2019-Jun-09 16:28N 45°26' E 012°19'0 0.0
2019-Jun-09 15:58N 45°26' E 012°19'0 0.0
2019-Jun-09 15:28N 45°26' E 012°19'0 0.0
2019-Jun-09 14:58N 45°26' E 012°19'0 0.0
2019-Jun-09 14:28N 45°26' E 012°19'0 0.0
2019-Jun-09 13:58N 45°26' E 012°19'0 0.0
2019-Jun-09 13:28N 45°26' E 012°19'0 0.0
2019-Jun-09 12:58N 45°26' E 012°19'0 0.0
2019-Jun-09 12:28N 45°26' E 012°19'0 0.0
2019-Jun-09 11:55N 45°26' E 012°19'0 0.0
2019-Jun-09 11:28N 45°26' E 012°19'0 0.0
2019-Jun-09 10:58N 45°26' E 012°19'0 0.0
2019-Jun-09 10:28N 45°26' E 012°19'0 0.0
2019-Jun-09 09:58N 45°26' E 012°19'0 0.0
2019-Jun-09 09:28N 45°26' E 012°19'0 0.0
2019-Jun-09 08:58N 45°26' E 012°19'0 0.0
2019-Jun-09 08:28N 45°26' E 012°19'0 0.0
2019-Jun-09 07:58N 45°26' E 012°19'0 0.0
2019-Jun-09 07:28N 45°26' E 012°19'0 0.0
2019-Jun-09 06:55N 45°26' E 012°19'0 0.0
2019-Jun-09 06:28N 45°26' E 012°19'0 0.0
2019-Jun-09 05:58N 45°26' E 012°19'0 0.0
2019-Jun-09 05:28N 45°26' E 012°19'0 0.0
2019-Jun-09 04:55N 45°26' E 012°19'0 0.0
2019-Jun-09 04:01N 45°26' E 012°19'0 0.6
2019-Jun-09 03:31N 45°26' E 012°18'2 3.3
2019-Jun-09 03:01N 45°26' E 012°21'2 4.3
2019-Jun-09 02:31N 45°26' E 012°24'4 8.2
2019-Jun-09 02:01N 45°24' E 012°29'5 9.2
2019-Jun-09 01:31N 45°20' E 012°32'510.3
2019-Jun-09 01:00N 45°16' E 012°36'612.9
2019-Jun-09 00:30N 45°18' E 012°45'713.3
2019-Jun-09 00:00N 45°22' E 012°52'612.5
2019-Jun-08 23:30N 45°26' E 012°59'713.2
2019-Jun-08 23:00N 45°30' E 013°07'713.2
2019-Jun-08 22:30N 45°33' E 013°15'612.8
2019-Jun-08 22:00N 45°35' E 013°24'713.3
2019-Jun-08 21:30N 45°38' E 013°33'5 9.3
2019-Jun-08 21:00N 45°36' E 013°39'5 9.0
2019-Jun-08 20:30N 45°33' E 013°44'0 0.0
2019-Jun-08 19:59N 45°33' E 013°44'0 0.0
2019-Jun-08 19:29N 45°33' E 013°44'0 0.0
2019-Jun-08 18:59N 45°33' E 013°44'0 0.0
2019-Jun-08 18:29N 45°33' E 013°44'0 0.0
2019-Jun-08 17:59N 45°33' E 013°44'0 0.0
2019-Jun-08 17:26N 45°33' E 013°44'0 0.0
2019-Jun-08 16:59N 45°33' E 013°44'0 0.0
2019-Jun-08 16:23N 45°33' E 013°44'0 0.0
2019-Jun-08 15:59N 45°33' E 013°44'0 0.0
2019-Jun-08 15:29N 45°33' E 013°44'0 0.0
2019-Jun-08 14:56N 45°33' E 013°44'0 0.0
2019-Jun-08 14:23N 45°33' E 013°44'0 0.0
2019-Jun-08 13:59N 45°33' E 013°44'0 0.0
2019-Jun-08 13:29N 45°33' E 013°44'0 0.0
2019-Jun-08 13:00N 45°33' E 013°44'0 0.4
2019-Jun-08 12:30N 45°33' E 013°44'2 3.3
2019-Jun-08 12:00N 45°34' E 013°41'815.3
2019-Jun-08 11:31N 45°34' E 013°30'917.2
2019-Jun-08 11:01N 45°30' E 013°20'917.2
2019-Jun-08 10:31N 45°24' E 013°10'917.7
2019-Jun-08 10:00N 45°15' E 013°11'918.1
2019-Jun-08 09:31N 45°07' E 013°14'918.2
2019-Jun-08 09:01N 44°58' E 013°19'1019.2
2019-Jun-08 08:31N 44°50' E 013°26'1121.4
2019-Jun-08 08:01N 44°41' E 013°35'1121.6
2019-Jun-08 07:30N 44°32' E 013°44'1121.8
2019-Jun-08 07:01N 44°23' E 013°51'1121.9
2019-Jun-08 06:31N 44°14' E 013°60'1121.9
2019-Jun-08 06:00N 44°05' E 014°09'1121.7
2019-Jun-08 05:31N 43°57' E 014°18'  
2019-Jun-05 20:51N 36°28' E 023°26'515.9
2019-Jun-05 20:30N 36°29' E 023°32'1316.2
2019-Jun-05 19:43N 36°35' E 023°46'416.6
2019-Jun-05 19:30N 36°37' E 023°50'1016.6
2019-Jun-05 18:55N 36°44' E 023°59'716.3
2019-Jun-05 18:30N 36°49' E 024°05'1616.3
2019-Jun-05 17:32N 36°58' E 024°21'316.5
2019-Jun-05 17:22N 36°59' E 024°24'2416.5
2019-Jun-05 15:53N 37°12' E 024°50'616.7
2019-Jun-05 15:30N 37°15' E 024°56'816.6
2019-Jun-05 15:00N 37°20' E 025°05'816.7
2019-Jun-05 14:30N 37°27' E 025°11'713.3
2019-Jun-05 14:00N 37°27' E 025°19'0 0.2
2019-Jun-05 13:26N 37°27' E 025°19'0 0.0
2019-Jun-05 12:59N 37°27' E 025°19'0 0.0
2019-Jun-05 12:26N 37°27' E 025°19'0 0.0
2019-Jun-05 11:56N 37°27' E 025°19'0 0.0
2019-Jun-05 11:29N 37°27' E 025°19'0 0.0
2019-Jun-05 10:59N 37°27' E 025°19'0 0.0
2019-Jun-05 10:29N 37°27' E 025°19'0 0.0
2019-Jun-05 09:59N 37°27' E 025°19'0 0.0
2019-Jun-05 09:26N 37°27' E 025°19'0 0.1
2019-Jun-05 08:59N 37°27' E 025°19'0 0.1
2019-Jun-05 08:29N 37°27' E 025°19'0 0.1
2019-Jun-05 07:59N 37°27' E 025°19'0 0.0
2019-Jun-05 07:26N 37°27' E 025°19'0 0.0
2019-Jun-05 06:56N 37°27' E 025°19'0 0.1
2019-Jun-05 06:29N 37°27' E 025°19'0 0.0
2019-Jun-05 05:59N 37°27' E 025°19'0 0.0
2019-Jun-05 05:29N 37°27' E 025°19'0 0.0
2019-Jun-05 04:56N 37°27' E 025°19'0 0.0
2019-Jun-05 04:29N 37°27' E 025°19'0 0.4
2019-Jun-05 04:01N 37°27' E 025°19'3 6.8
2019-Jun-05 03:30N 37°27' E 025°15'510.7
2019-Jun-05 03:00N 37°25' E 025°09'611.9
2019-Jun-05 02:30N 37°20' E 025°05'511.0
2019-Jun-05 02:00N 37°15' E 025°02'611.9
2019-Jun-05 01:31N 37°10' E 024°59'  
Track history (hours):
 
Tides and Currents Weather Stations Pressure Air Temp Water Temp Dewpoint Dewpoint Depression Visibility Wind Speed Wind Dir Waves Ship Positions

Norwegian Jade

Last reported at 2019-Jun-14 18:28 UTC. Time now 2019-Jun-17 18:38 UTC.
Position N 37°06' E 024°57'.

Length 294 m; draft 8.5 m.

Type: Passenger vessel. MMSI: 308416000.

Date/timePositionNaut miles runAvg speedWind from/ knotsBaromVisibWave heightAir tempDewpointWater temp
2019-Jun-14 18:28N 37°06' E 024°57'4 9.3
2019-Jun-14 18:00N 37°10' E 024°59'5 9.1
2019-Jun-14 17:30N 37°14' E 025°01'4 8.9
2019-Jun-14 17:00N 37°18' E 025°04'4 8.9
2019-Jun-14 16:30N 37°22' E 025°06'4 7.8
2019-Jun-14 16:00N 37°25' E 025°09'4 7.8
2019-Jun-14 15:30N 37°28' E 025°13'4 8.7
2019-Jun-14 15:00N 37°28' E 025°18'1 1.9
2019-Jun-14 14:30N 37°28' E 025°19'0 0.0
2019-Jun-14 14:00N 37°28' E 025°19'0 0.0
2019-Jun-14 13:30N 37°28' E 025°19'0 0.0
2019-Jun-14 12:54N 37°28' E 025°19'0 0.0
2019-Jun-14 12:24N 37°28' E 025°19'0 0.0
2019-Jun-14 12:00N 37°28' E 025°19'0 0.0
2019-Jun-14 11:30N 37°28' E 025°19'0 0.0
2019-Jun-14 11:00N 37°28' E 025°19'0 0.0
2019-Jun-14 10:30N 37°28' E 025°19'0 0.0
2019-Jun-14 10:00N 37°28' E 025°19'0 0.0
2019-Jun-14 09:30N 37°28' E 025°19'0 0.0
2019-Jun-14 09:00N 37°28' E 025°19'0 0.0
2019-Jun-14 08:30N 37°28' E 025°19'0 0.0
2019-Jun-14 08:00N 37°28' E 025°19'0 0.0
2019-Jun-14 07:30N 37°28' E 025°19'0 0.0
2019-Jun-14 06:57N 37°28' E 025°19'0 0.0
2019-Jun-14 06:30N 37°28' E 025°19'0 0.0
2019-Jun-14 06:00N 37°28' E 025°19'0 0.0
2019-Jun-14 05:30N 37°28' E 025°19'0 0.0
2019-Jun-14 04:57N 37°28' E 025°19'0 0.0
2019-Jun-14 04:30N 37°28' E 025°19'1 2.3
2019-Jun-14 04:00N 37°27' E 025°18'5 9.7
2019-Jun-14 03:30N 37°27' E 025°12'510.3
2019-Jun-14 03:00N 37°24' E 025°08'510.7
2019-Jun-14 02:30N 37°19' E 025°04'611.1
2019-Jun-14 02:00N 37°14' E 025°01'611.2
2019-Jun-14 01:30N 37°09' E 024°58'87 3.5
2019-Jun-13 00:29N 36°23' E 023°27'14919.0
2019-Jun-12 16:40N 37°25' E 020°38'  
2019-Jun-10 03:00N 43°33' E 014°20'1221.8
2019-Jun-10 02:28N 43°41' E 014°08'1221.7
2019-Jun-10 01:54N 43°49' E 013°55'1021.3
2019-Jun-10 01:25N 43°56' E 013°44'921.2
2019-Jun-10 01:00N 44°01' E 013°35'1121.1
2019-Jun-10 00:30N 44°07' E 013°23'1020.3
2019-Jun-10 00:00N 44°14' E 013°12'1121.0
2019-Jun-09 23:30N 44°24' E 013°08'1020.9
2019-Jun-09 23:00N 44°34' E 013°03'1121.1
2019-Jun-09 22:30N 44°44' E 012°58'1021.0
2019-Jun-09 22:00N 44°53' E 012°52'1021.0
2019-Jun-09 21:30N 45°03' E 012°45'1020.1
2019-Jun-09 21:00N 45°10' E 012°35'918.7
2019-Jun-09 20:30N 45°19' E 012°30'714.2
2019-Jun-09 20:00N 45°25' E 012°26'3 5.8
2019-Jun-09 19:30N 45°25' E 012°22'2 4.3
2019-Jun-09 19:00N 45°26' E 012°19'1 1.1
2019-Jun-09 18:28N 45°26' E 012°19'0 0.0
2019-Jun-09 17:58N 45°26' E 012°19'0 0.0
2019-Jun-09 17:28N 45°26' E 012°19'0 0.0
2019-Jun-09 16:58N 45°26' E 012°19'0 0.0
2019-Jun-09 16:28N 45°26' E 012°19'0 0.0
2019-Jun-09 15:58N 45°26' E 012°19'0 0.0
2019-Jun-09 15:28N 45°26' E 012°19'0 0.0
2019-Jun-09 14:58N 45°26' E 012°19'0 0.0
2019-Jun-09 14:28N 45°26' E 012°19'0 0.0
2019-Jun-09 13:58N 45°26' E 012°19'0 0.0
2019-Jun-09 13:28N 45°26' E 012°19'0 0.0
2019-Jun-09 12:58N 45°26' E 012°19'0 0.0
2019-Jun-09 12:28N 45°26' E 012°19'0 0.0
2019-Jun-09 11:55N 45°26' E 012°19'0 0.0
2019-Jun-09 11:28N 45°26' E 012°19'0 0.0
2019-Jun-09 10:58N 45°26' E 012°19'0 0.0
2019-Jun-09 10:28N 45°26' E 012°19'0 0.0
2019-Jun-09 09:58N 45°26' E 012°19'0 0.0
2019-Jun-09 09:28N 45°26' E 012°19'0 0.0
2019-Jun-09 08:58N 45°26' E 012°19'0 0.0
2019-Jun-09 08:28N 45°26' E 012°19'0 0.0
2019-Jun-09 07:58N 45°26' E 012°19'0 0.0
2019-Jun-09 07:28N 45°26' E 012°19'0 0.0
2019-Jun-09 06:55N 45°26' E 012°19'0 0.0
2019-Jun-09 06:28N 45°26' E 012°19'0 0.0
2019-Jun-09 05:58N 45°26' E 012°19'0 0.0
2019-Jun-09 05:28N 45°26' E 012°19'0 0.0
2019-Jun-09 04:55N 45°26' E 012°19'0 0.0
2019-Jun-09 04:01N 45°26' E 012°19'0 0.6
2019-Jun-09 03:31N 45°26' E 012°18'2 3.3
2019-Jun-09 03:01N 45°26' E 012°21'2 4.3
2019-Jun-09 02:31N 45°26' E 012°24'4 8.2
2019-Jun-09 02:01N 45°24' E 012°29'5 9.2
2019-Jun-09 01:31N 45°20' E 012°32'510.3
2019-Jun-09 01:00N 45°16' E 012°36'612.9
2019-Jun-09 00:30N 45°18' E 012°45'713.3
2019-Jun-09 00:00N 45°22' E 012°52'612.5
2019-Jun-08 23:30N 45°26' E 012°59'713.2
2019-Jun-08 23:00N 45°30' E 013°07'713.2
2019-Jun-08 22:30N 45°33' E 013°15'612.8
2019-Jun-08 22:00N 45°35' E 013°24'713.3
2019-Jun-08 21:30N 45°38' E 013°33'5 9.3
2019-Jun-08 21:00N 45°36' E 013°39'5 9.0
2019-Jun-08 20:30N 45°33' E 013°44'0 0.0
2019-Jun-08 19:59N 45°33' E 013°44'0 0.0
2019-Jun-08 19:29N 45°33' E 013°44'0 0.0
2019-Jun-08 18:59N 45°33' E 013°44'0 0.0
2019-Jun-08 18:29N 45°33' E 013°44'0 0.0
2019-Jun-08 17:59N 45°33' E 013°44'0 0.0
2019-Jun-08 17:26N 45°33' E 013°44'0 0.0
2019-Jun-08 16:59N 45°33' E 013°44'0 0.0
2019-Jun-08 16:23N 45°33' E 013°44'0 0.0
2019-Jun-08 15:59N 45°33' E 013°44'0 0.0
2019-Jun-08 15:29N 45°33' E 013°44'0 0.0
2019-Jun-08 14:56N 45°33' E 013°44'0 0.0
2019-Jun-08 14:23N 45°33' E 013°44'0 0.0
2019-Jun-08 13:59N 45°33' E 013°44'0 0.0
2019-Jun-08 13:29N 45°33' E 013°44'0 0.0
2019-Jun-08 13:00N 45°33' E 013°44'0 0.4
2019-Jun-08 12:30N 45°33' E 013°44'2 3.3
2019-Jun-08 12:00N 45°34' E 013°41'815.3
2019-Jun-08 11:31N 45°34' E 013°30'917.2
2019-Jun-08 11:01N 45°30' E 013°20'917.2
2019-Jun-08 10:31N 45°24' E 013°10'917.7
2019-Jun-08 10:00N 45°15' E 013°11'918.1
2019-Jun-08 09:31N 45°07' E 013°14'918.2
2019-Jun-08 09:01N 44°58' E 013°19'1019.2
2019-Jun-08 08:31N 44°50' E 013°26'1121.4
2019-Jun-08 08:01N 44°41' E 013°35'1121.6
2019-Jun-08 07:30N 44°32' E 013°44'1121.8
2019-Jun-08 07:01N 44°23' E 013°51'1121.9
2019-Jun-08 06:31N 44°14' E 013°60'1121.9
2019-Jun-08 06:00N 44°05' E 014°09'1121.7
2019-Jun-08 05:31N 43°57' E 014°18'  
2019-Jun-05 20:51N 36°28' E 023°26'515.9
2019-Jun-05 20:30N 36°29' E 023°32'1316.2
2019-Jun-05 19:43N 36°35' E 023°46'416.6
2019-Jun-05 19:30N 36°37' E 023°50'1016.6
2019-Jun-05 18:55N 36°44' E 023°59'716.3
2019-Jun-05 18:30N 36°49' E 024°05'1616.3
2019-Jun-05 17:32N 36°58' E 024°21'316.5
2019-Jun-05 17:22N 36°59' E 024°24'2416.5
2019-Jun-05 15:53N 37°12' E 024°50'616.7
2019-Jun-05 15:30N 37°15' E 024°56'816.6
2019-Jun-05 15:00N 37°20' E 025°05'816.7
2019-Jun-05 14:30N 37°27' E 025°11'713.3
2019-Jun-05 14:00N 37°27' E 025°19'0 0.2
2019-Jun-05 13:26N 37°27' E 025°19'0 0.0
2019-Jun-05 12:59N 37°27' E 025°19'0 0.0
2019-Jun-05 12:26N 37°27' E 025°19'0 0.0
2019-Jun-05 11:56N 37°27' E 025°19'0 0.0
2019-Jun-05 11:29N 37°27' E 025°19'0 0.0
2019-Jun-05 10:59N 37°27' E 025°19'0 0.0
2019-Jun-05 10:29N 37°27' E 025°19'0 0.0
2019-Jun-05 09:59N 37°27' E 025°19'0 0.0
2019-Jun-05 09:26N 37°27' E 025°19'0 0.1
2019-Jun-05 08:59N 37°27' E 025°19'0 0.1
2019-Jun-05 08:29N 37°27' E 025°19'0 0.1
2019-Jun-05 07:59N 37°27' E 025°19'0 0.0
2019-Jun-05 07:26N 37°27' E 025°19'0 0.0
2019-Jun-05 06:56N 37°27' E 025°19'0 0.1
2019-Jun-05 06:29N 37°27' E 025°19'0 0.0
2019-Jun-05 05:59N 37°27' E 025°19'0 0.0
2019-Jun-05 05:29N 37°27' E 025°19'0 0.0
2019-Jun-05 04:56N 37°27' E 025°19'0 0.0
2019-Jun-05 04:29N 37°27' E 025°19'0 0.4
2019-Jun-05 04:01N 37°27' E 025°19'3 6.8
2019-Jun-05 03:30N 37°27' E 025°15'510.7
2019-Jun-05 03:00N 37°25' E 025°09'611.9
2019-Jun-05 02:30N 37°20' E 025°05'511.0
2019-Jun-05 02:00N 37°15' E 025°02'611.9
2019-Jun-05 01:31N 37°10' E 024°59'  

Dump ship's entire track history